createdAt,value
2019-01-31T00:02:23.208Z,87.58
2019-01-31T00:05:35.160Z,87.29
2019-01-31T00:08:45.174Z,86.69
2019-01-31T00:11:38.771Z,86.75
2019-01-31T00:14:24.674Z,86.75
2019-01-31T00:17:34.350Z,86.63
2019-01-31T00:20:35.252Z,87.06
2019-01-31T00:23:51.897Z,86.89
2019-01-31T00:26:38.043Z,86.32
2019-01-31T00:29:19.351Z,85.48
2019-01-31T00:32:31.195Z,85.48
2019-01-31T00:35:38.708Z,85.66
2019-01-31T00:38:43.654Z,85.50
2019-01-31T00:41:40.865Z,85.94
2019-01-31T00:44:34.661Z,86.11
2019-01-31T00:47:58.632Z,86.18
2019-01-31T00:51:00.657Z,86.33
2019-01-31T00:54:18.488Z,86.87
2019-01-31T00:57:18.383Z,87.11
2019-01-31T01:00:10.063Z,87.71
2019-01-31T01:03:09.968Z,88.49
2019-01-31T01:06:27.763Z,88.75
2019-01-31T01:09:23.089Z,89.07
2019-01-31T01:12:21.522Z,89.71
2019-01-31T01:15:30.681Z,89.64
2019-01-31T01:18:44.257Z,89.81
2019-01-31T01:21:55.989Z,89.57
2019-01-31T01:25:08.956Z,89.18
2019-01-31T01:28:24.156Z,88.90
2019-01-31T01:31:26.261Z,88.84
2019-01-31T01:34:37.213Z,88.99
2019-01-31T01:37:38.359Z,88.94
2019-01-31T01:40:33.808Z,89.04
2019-01-31T01:43:34.035Z,88.62
2019-01-31T01:46:51.719Z,88.57
2019-01-31T01:49:50.225Z,89.11
2019-01-31T01:52:42.940Z,88.39
2019-01-31T01:56:10.184Z,88.10
2019-01-31T01:59:12.723Z,87.68
2019-01-31T02:02:28.292Z,87.68
2019-01-31T02:05:34.660Z,87.55
2019-01-31T02:08:27.544Z,87.55
2019-01-31T02:11:48.313Z,87.45
2019-01-31T02:15:04.316Z,87.29
2019-01-31T02:18:06.542Z,87.37
2019-01-31T02:21:17.708Z,87.19
2019-01-31T02:24:19.372Z,87.07
2019-01-31T02:27:03.247Z,87.09
2019-01-31T02:30:18.300Z,87.20
2019-01-31T02:33:30.640Z,87.08
2019-01-31T02:37:01.046Z,87.20
2019-01-31T02:40:19.946Z,87.28
2019-01-31T02:43:21.646Z,87.27
2019-01-31T02:46:29.404Z,87.34
2019-01-31T02:49:44.684Z,87.50
2019-01-31T02:52:51.773Z,87.34
2019-01-31T02:55:37.512Z,86.62
2019-01-31T02:58:43.513Z,86.79
2019-01-31T03:01:55.547Z,87.26
2019-01-31T03:05:03.425Z,87.11
2019-01-31T03:08:00.446Z,87.34
2019-01-31T03:10:44.919Z,87.28
2019-01-31T03:13:52.229Z,87.28
2019-01-31T03:16:53.522Z,87.35
2019-01-31T03:19:53.807Z,87.18
2019-01-31T03:23:08.976Z,87.07
2019-01-31T03:25:46.977Z,87.10
2019-01-31T03:29:02.380Z,87.18
2019-01-31T03:31:54.550Z,87.31
2019-01-31T03:35:01.223Z,87.28
2019-01-31T03:38:07.479Z,87.40
2019-01-31T03:41:22.716Z,88.76
2019-01-31T03:44:36.043Z,89.25
2019-01-31T03:47:38.534Z,89.55
2019-01-31T03:50:42.058Z,90.33
2019-01-31T03:54:03.398Z,90.55
2019-01-31T03:57:07.200Z,90.70
2019-01-31T03:59:49.568Z,90.20
2019-01-31T04:02:33.602Z,89.74
2019-01-31T04:05:29.221Z,89.47
2019-01-31T04:08:00.501Z,89.54
2019-01-31T04:10:32.284Z,89.24
2019-01-31T04:13:03.764Z,89.07
2019-01-31T04:15:35.581Z,88.50
2019-01-31T04:18:07.478Z,88.05
2019-01-31T04:20:39.326Z,88.06
2019-01-31T04:23:11.013Z,87.62
2019-01-31T04:25:42.521Z,87.29
2019-01-31T04:28:14.280Z,87.11
2019-01-31T04:30:45.780Z,86.89
2019-01-31T04:33:17.127Z,86.68
2019-01-31T04:35:48.680Z,86.62
2019-01-31T04:38:20.394Z,86.94
2019-01-31T04:40:52.052Z,86.79
2019-01-31T04:43:23.363Z,86.64
2019-01-31T04:45:54.886Z,87.01
2019-01-31T04:48:26.355Z,87.04
2019-01-31T04:50:57.938Z,86.90
2019-01-31T04:53:29.756Z,86.74
2019-01-31T04:56:01.466Z,86.21
2019-01-31T04:58:33.060Z,85.99
2019-01-31T05:01:04.743Z,85.44
2019-01-31T05:03:36.436Z,85.68
2019-01-31T05:06:07.847Z,86.21
2019-01-31T05:08:39.543Z,86.35
2019-01-31T05:11:10.814Z,86.49
2019-01-31T05:13:42.368Z,86.70
2019-01-31T05:16:13.733Z,87.18
2019-01-31T05:18:45.368Z,86.98
2019-01-31T05:21:16.662Z,87.05
2019-01-31T05:23:48.432Z,86.87
2019-01-31T05:26:20.110Z,86.70
2019-01-31T05:28:51.537Z,86.36
2019-01-31T05:31:22.917Z,86.37
2019-01-31T05:33:54.557Z,86.86
2019-01-31T05:36:26.100Z,87.14
2019-01-31T05:38:57.845Z,87.86
2019-01-31T05:41:29.670Z,88.55
2019-01-31T05:44:01.427Z,88.60
2019-01-31T05:46:33.366Z,88.66
2019-01-31T05:49:04.915Z,88.34
2019-01-31T05:51:39.369Z,88.25
2019-01-31T05:54:09.961Z,88.42
2019-01-31T05:56:41.662Z,88.43
2019-01-31T05:59:13.342Z,88.80
2019-01-31T06:01:44.610Z,89.21
2019-01-31T06:04:16.307Z,89.65
2019-01-31T06:06:47.936Z,89.20
2019-01-31T06:09:19.415Z,88.98
2019-01-31T06:11:51.223Z,88.81
2019-01-31T06:14:22.979Z,88.35
2019-01-31T06:16:54.733Z,87.92
2019-01-31T06:19:26.220Z,87.44
2019-01-31T06:21:57.938Z,86.93
2019-01-31T06:24:29.676Z,86.59
2019-01-31T06:27:01.407Z,86.72
2019-01-31T06:29:33.157Z,86.63
2019-01-31T06:32:04.633Z,85.98
2019-01-31T06:34:36.272Z,85.62
2019-01-31T06:37:07.921Z,84.53
2019-01-31T06:39:39.523Z,82.86
2019-01-31T06:42:11.404Z,82.24
2019-01-31T06:44:43.140Z,81.36
2019-01-31T06:47:14.515Z,81.25
2019-01-31T06:49:46.115Z,82.29
2019-01-31T06:52:17.822Z,82.81
2019-01-31T06:54:49.231Z,83.56
2019-01-31T06:57:20.917Z,84.75
2019-01-31T06:59:52.308Z,85.91
2019-01-31T07:02:24.177Z,86.30
2019-01-31T07:04:55.920Z,87.08
2019-01-31T07:07:27.708Z,87.81
2019-01-31T07:09:59.169Z,88.64
2019-01-31T07:12:30.919Z,89.16
2019-01-31T07:15:02.468Z,89.89
2019-01-31T07:17:34.168Z,90.34
2019-01-31T07:20:06.586Z,89.92
2019-01-31T07:22:38.050Z,90.53
2019-01-31T07:25:14.369Z,90.51
2019-01-31T07:27:46.002Z,90.53
2019-01-31T07:30:18.259Z,90.99
2019-01-31T07:32:49.862Z,91.59
2019-01-31T07:35:21.794Z,92.07
2019-01-31T07:37:53.659Z,91.95
2019-01-31T07:40:25.241Z,92.07
2019-01-31T07:42:56.660Z,92.33
2019-01-31T07:45:30.010Z,92.61
2019-01-31T07:48:01.925Z,92.40
2019-01-31T07:50:33.455Z,91.84
2019-01-31T07:53:05.301Z,91.61
2019-01-31T07:55:37.196Z,91.31
2019-01-31T07:58:08.837Z,91.20
2019-01-31T08:00:40.685Z,91.11
2019-01-31T08:03:12.241Z,91.54
2019-01-31T08:05:44.323Z,91.63
2019-01-31T08:08:16.298Z,91.47
2019-01-31T08:10:48.311Z,91.27
2019-01-31T08:13:19.915Z,90.43
2019-01-31T08:15:51.578Z,90.09
2019-01-31T08:18:23.341Z,90.17
2019-01-31T08:20:54.937Z,90.23
2019-01-31T08:23:26.598Z,89.96
2019-01-31T08:25:58.380Z,90.12
2019-01-31T08:28:30.347Z,89.52
2019-01-31T08:31:02.105Z,88.44
2019-01-31T08:33:33.903Z,87.50
2019-01-31T08:36:05.503Z,85.79
2019-01-31T08:38:37.363Z,87.06
2019-01-31T08:41:08.759Z,86.19
2019-01-31T08:43:40.696Z,84.29
2019-01-31T08:46:12.329Z,85.21
2019-01-31T08:48:44.046Z,84.87
2019-01-31T08:51:15.884Z,82.92
2019-01-31T08:53:47.363Z,84.14
2019-01-31T08:56:19.047Z,82.11
2019-01-31T08:58:50.688Z,82.50
2019-01-31T09:01:23.636Z,81.63
2019-01-31T09:03:55.311Z,81.33
2019-01-31T09:06:26.836Z,81.04
2019-01-31T09:08:58.346Z,79.92
2019-01-31T09:11:30.074Z,79.67
2019-01-31T09:14:01.832Z,77.39
2019-01-31T09:16:33.463Z,75.74
2019-01-31T09:19:04.929Z,74.32
2019-01-31T09:21:49.471Z,74.50
2019-01-31T09:25:04.167Z,73.87
2019-01-31T09:28:11.965Z,73.68
2019-01-31T09:31:14.295Z,71.72
2019-01-31T09:34:17.188Z,69.69
2019-01-31T09:37:22.234Z,68.31
2019-01-31T09:40:31.432Z,68.57
2019-01-31T09:43:14.235Z,68.57
2019-01-31T09:46:26.410Z,69.51
2019-01-31T09:49:56.501Z,68.03
2019-01-31T09:52:59.725Z,68.18
2019-01-31T09:56:07.439Z,71.31
2019-01-31T09:59:28.273Z,70.18
2019-01-31T10:02:46.723Z,68.80
2019-01-31T10:06:00.277Z,70.31
2019-01-31T10:09:00.029Z,70.22
2019-01-31T10:12:18.087Z,71.46
2019-01-31T10:15:03.978Z,73.28
2019-01-31T10:18:12.512Z,74.46
2019-01-31T10:21:20.167Z,74.23
2019-01-31T10:24:34.061Z,74.97
2019-01-31T10:27:40.511Z,77.68
2019-01-31T10:31:16.319Z,75.38
2019-01-31T10:34:05.080Z,74.82
2019-01-31T10:37:23.094Z,74.54
2019-01-31T10:40:04.991Z,74.88
2019-01-31T10:43:32.051Z,75.24
2019-01-31T10:46:32.480Z,74.78
2019-01-31T10:50:05.965Z,74.80
2019-01-31T10:53:13.125Z,75.04
2019-01-31T10:56:21.161Z,76.04
2019-01-31T10:59:27.483Z,75.92
2019-01-31T11:02:37.021Z,75.38
2019-01-31T11:05:20.002Z,74.92
2019-01-31T11:08:28.012Z,75.02
2019-01-31T11:11:38.889Z,75.36
2019-01-31T11:14:57.514Z,74.61
2019-01-31T11:18:08.666Z,73.69
2019-01-31T11:21:23.486Z,73.44
2019-01-31T11:24:33.223Z,74.25
2019-01-31T11:27:39.867Z,73.65
2019-01-31T11:30:45.195Z,72.61
2019-01-31T11:33:52.658Z,72.72
2019-01-31T11:36:58.023Z,72.83
2019-01-31T11:40:08.878Z,73.91
2019-01-31T11:43:23.752Z,73.97
2019-01-31T11:46:21.096Z,74.82
2019-01-31T11:49:35.024Z,74.02
2019-01-31T11:52:37.638Z,74.36
2019-01-31T11:55:30.381Z,73.85
2019-01-31T11:58:27.158Z,73.88
2019-01-31T12:00:58.674Z,74.16
2019-01-31T12:03:30.265Z,75.01
2019-01-31T12:06:01.811Z,73.77
2019-01-31T12:08:33.433Z,73.86
2019-01-31T12:11:05.052Z,74.25
2019-01-31T12:13:36.495Z,73.75
2019-01-31T12:16:08.183Z,74.11
2019-01-31T12:18:39.753Z,74.80
2019-01-31T12:21:11.587Z,73.91
2019-01-31T12:23:43.345Z,74.22
2019-01-31T12:26:14.911Z,74.36
2019-01-31T12:28:46.591Z,74.12
2019-01-31T12:31:18.088Z,73.77
2019-01-31T12:33:49.608Z,72.62
2019-01-31T12:36:21.138Z,72.85
2019-01-31T12:38:54.896Z,72.79
2019-01-31T12:41:26.153Z,72.86
2019-01-31T12:43:57.652Z,71.83
2019-01-31T12:46:28.912Z,71.75
2019-01-31T12:49:00.426Z,72.46
2019-01-31T12:51:32.181Z,72.92
2019-01-31T12:54:03.757Z,72.54
2019-01-31T12:56:35.455Z,72.51
2019-01-31T12:59:07.237Z,72.61
2019-01-31T13:01:38.929Z,72.69
2019-01-31T13:04:10.739Z,73.06
2019-01-31T13:06:42.216Z,72.72
2019-01-31T13:09:15.194Z,73.25
2019-01-31T13:11:47.118Z,72.96
2019-01-31T13:14:18.568Z,72.59
2019-01-31T13:16:50.090Z,72.90
2019-01-31T13:19:21.620Z,72.27
2019-01-31T13:21:53.171Z,71.84
2019-01-31T13:24:24.830Z,71.91
2019-01-31T13:26:56.561Z,71.61
2019-01-31T13:29:27.902Z,71.82
2019-01-31T13:31:59.487Z,70.96
2019-01-31T13:34:31.037Z,70.65
2019-01-31T13:37:02.706Z,71.04
2019-01-31T13:39:34.279Z,71.26
2019-01-31T13:42:06.171Z,71.42
2019-01-31T13:44:37.748Z,70.86
2019-01-31T13:47:09.422Z,71.09
2019-01-31T13:49:41.003Z,71.71
2019-01-31T13:52:12.550Z,71.50
2019-01-31T13:54:44.091Z,71.89
2019-01-31T13:57:15.826Z,71.61
2019-01-31T13:59:47.249Z,71.62
2019-01-31T14:02:18.530Z,71.53
2019-01-31T14:04:52.070Z,71.30
2019-01-31T14:07:23.796Z,71.40
2019-01-31T14:09:55.591Z,72.08
2019-01-31T14:12:27.048Z,72.54
2019-01-31T14:14:58.715Z,72.26
2019-01-31T14:17:30.253Z,72.47
2019-01-31T14:20:02.045Z,72.09
2019-01-31T14:22:42.751Z,73.05
2019-01-31T14:25:07.581Z,72.88
2019-01-31T14:27:39.257Z,73.17
2019-01-31T14:30:26.851Z,73.21
2019-01-31T14:32:59.069Z,72.79
2019-01-31T14:35:30.857Z,73.77
2019-01-31T14:38:02.214Z,73.40
2019-01-31T14:40:33.968Z,73.11
2019-01-31T14:43:05.507Z,73.48
2019-01-31T14:45:37.079Z,73.72
2019-01-31T14:48:08.593Z,73.71
2019-01-31T14:50:40.095Z,74.32
2019-01-31T14:53:11.649Z,74.75
2019-01-31T14:55:43.036Z,74.66
2019-01-31T14:58:14.908Z,74.85
2019-01-31T15:00:46.713Z,74.77
2019-01-31T15:03:18.047Z,76.05
2019-01-31T15:05:49.557Z,76.50
2019-01-31T15:08:21.056Z,77.30
2019-01-31T15:10:52.801Z,77.60
2019-01-31T15:13:24.396Z,77.42
2019-01-31T15:15:56.024Z,78.50
2019-01-31T15:18:27.953Z,78.78
2019-01-31T15:20:59.261Z,79.45
2019-01-31T15:23:30.487Z,81.76
2019-01-31T15:26:02.307Z,83.79
2019-01-31T15:28:34.073Z,84.72
2019-01-31T15:31:05.506Z,85.47
2019-01-31T15:33:37.393Z,85.54
2019-01-31T15:36:09.041Z,85.66
2019-01-31T15:38:40.924Z,85.96
2019-01-31T15:41:12.668Z,86.47
2019-01-31T15:43:44.139Z,87.26
2019-01-31T15:46:18.021Z,88.06
2019-01-31T15:48:49.698Z,88.33
2019-01-31T15:51:21.427Z,88.52
2019-01-31T15:53:52.812Z,88.58
2019-01-31T15:56:24.711Z,88.51
2019-01-31T15:58:56.447Z,88.15
2019-01-31T16:01:28.333Z,88.35
2019-01-31T16:04:00.930Z,88.49
2019-01-31T16:06:33.175Z,88.61
2019-01-31T16:09:05.866Z,89.13
2019-01-31T16:11:37.850Z,89.43
2019-01-31T16:14:09.575Z,89.62
2019-01-31T16:16:41.866Z,90.21
2019-01-31T16:19:13.516Z,90.03
2019-01-31T16:21:45.169Z,90.14
2019-01-31T16:24:16.963Z,90.16
2019-01-31T16:26:48.753Z,90.84
2019-01-31T16:29:20.664Z,90.41
2019-01-31T16:31:52.141Z,90.41
2019-01-31T16:34:23.695Z,90.24
2019-01-31T16:36:55.216Z,90.14
2019-01-31T16:39:26.435Z,90.09
2019-01-31T16:41:57.910Z,89.86
2019-01-31T16:44:29.818Z,89.84
2019-01-31T16:47:01.361Z,90.09
2019-01-31T16:49:33.048Z,89.73
2019-01-31T16:52:05.092Z,89.03
2019-01-31T16:54:36.576Z,88.91
2019-01-31T16:57:08.130Z,88.73
2019-01-31T16:59:39.578Z,88.98
2019-01-31T17:02:11.216Z,89.15
2019-01-31T17:04:42.920Z,89.19
2019-01-31T17:07:14.624Z,88.52
2019-01-31T17:09:46.354Z,88.70
2019-01-31T17:12:18.010Z,88.78
2019-01-31T17:14:49.672Z,88.95
2019-01-31T17:17:21.288Z,88.92
2019-01-31T17:19:52.973Z,88.63
2019-01-31T17:22:24.744Z,88.79
2019-01-31T17:24:56.271Z,88.43
2019-01-31T17:27:27.798Z,88.64
2019-01-31T17:29:59.489Z,88.28
2019-01-31T17:32:31.175Z,88.23
2019-01-31T17:35:02.693Z,88.36
2019-01-31T17:37:34.024Z,87.55
2019-01-31T17:40:06.967Z,87.51
2019-01-31T17:42:38.483Z,87.12
2019-01-31T17:45:11.331Z,86.72
2019-01-31T17:47:42.992Z,86.82
2019-01-31T17:50:14.850Z,86.22
2019-01-31T17:52:46.674Z,85.87
2019-01-31T17:55:19.627Z,85.45
2019-01-31T17:57:51.475Z,84.26
2019-01-31T18:00:31.541Z,84.17
2019-01-31T18:03:03.915Z,82.98
2019-01-31T18:05:35.519Z,81.77
2019-01-31T18:08:09.348Z,81.03
2019-01-31T18:10:40.279Z,81.46
2019-01-31T18:13:12.090Z,81.19
2019-01-31T18:15:43.783Z,81.18
2019-01-31T18:18:15.405Z,80.76
2019-01-31T18:20:46.817Z,81.22
2019-01-31T18:23:19.634Z,81.46
2019-01-31T18:25:51.077Z,81.18
2019-01-31T18:28:22.415Z,81.24
2019-01-31T18:30:53.870Z,80.30
2019-01-31T18:33:27.470Z,80.18
2019-01-31T18:35:58.462Z,80.31
2019-01-31T18:38:30.706Z,80.20
2019-01-31T18:41:02.316Z,79.57
2019-01-31T18:43:33.621Z,79.63
2019-01-31T18:46:05.139Z,79.70
2019-01-31T18:48:36.571Z,79.28
2019-01-31T18:51:08.307Z,79.39
2019-01-31T18:53:40.137Z,79.45
2019-01-31T18:56:11.840Z,79.20
2019-01-31T18:58:44.008Z,79.70
2019-01-31T19:01:19.989Z,79.25
2019-01-31T19:04:03.536Z,79.51
2019-01-31T19:06:36.889Z,79.81
2019-01-31T19:09:09.953Z,79.43
2019-01-31T19:11:41.889Z,78.94
2019-01-31T19:14:14.481Z,78.72
2019-01-31T19:16:46.262Z,79.52
2019-01-31T19:19:17.983Z,80.84
2019-01-31T19:21:49.411Z,80.60
2019-01-31T19:24:21.173Z,81.15
2019-01-31T19:26:52.961Z,81.54
2019-01-31T19:29:29.018Z,81.85
2019-01-31T19:32:23.873Z,81.87
2019-01-31T19:35:02.397Z,82.18
2019-01-31T19:37:35.624Z,81.70
2019-01-31T19:40:08.922Z,81.81
2019-01-31T19:42:41.460Z,82.09
2019-01-31T19:45:31.905Z,82.38
2019-01-31T19:48:07.384Z,82.08
2019-01-31T19:50:38.895Z,82.66
2019-01-31T19:53:12.351Z,82.25
2019-01-31T19:55:43.916Z,82.07
2019-01-31T19:58:15.601Z,82.06
2019-01-31T20:00:51.450Z,82.06
2019-01-31T20:03:23.053Z,81.99
2019-01-31T20:05:54.722Z,82.11
2019-01-31T20:08:26.266Z,81.83
2019-01-31T20:10:58.013Z,81.63
2019-01-31T20:13:29.562Z,81.51
2019-01-31T20:16:01.100Z,82.22
2019-01-31T20:18:32.749Z,82.71
2019-01-31T20:21:04.735Z,82.45
2019-01-31T20:23:36.071Z,82.62
2019-01-31T20:26:07.840Z,83.19
2019-01-31T20:28:39.442Z,83.10
2019-01-31T20:31:11.070Z,83.28
2019-01-31T20:33:42.935Z,83.35
2019-01-31T20:36:14.625Z,83.40
2019-01-31T20:38:46.613Z,83.49
2019-01-31T20:41:18.282Z,83.31
2019-01-31T20:43:50.320Z,83.20
2019-01-31T20:46:21.940Z,83.28
2019-01-31T20:48:53.788Z,82.91
2019-01-31T20:51:25.398Z,82.79
2019-01-31T20:53:56.990Z,82.98
2019-01-31T20:56:28.364Z,82.60
2019-01-31T20:59:00.104Z,82.17
2019-01-31T21:01:31.579Z,81.75
2019-01-31T21:04:03.297Z,80.95
2019-01-31T21:06:41.484Z,80.55
2019-01-31T21:09:09.440Z,80.48
2019-01-31T21:11:42.868Z,80.20
2019-01-31T21:14:14.215Z,79.47
2019-01-31T21:16:52.506Z,80.29
2019-01-31T21:19:19.034Z,81.05
2019-01-31T21:21:50.485Z,81.80
2019-01-31T21:24:21.937Z,82.03
2019-01-31T21:26:53.384Z,82.27
2019-01-31T21:32:26.525Z,82.52
2019-01-31T21:35:09.347Z,82.37
2019-01-31T21:37:53.741Z,82.53
2019-01-31T21:40:41.600Z,82.23
2019-01-31T21:43:12.923Z,82.49
2019-01-31T21:45:44.423Z,82.36
2019-01-31T21:48:16.131Z,81.53
2019-01-31T21:50:47.928Z,81.33
2019-01-31T21:53:19.652Z,81.11
2019-01-31T21:55:51.108Z,80.10
2019-01-31T21:58:22.690Z,79.20
2019-01-31T22:00:54.012Z,78.98
2019-01-31T22:03:25.606Z,78.38
2019-01-31T22:05:56.930Z,78.45
2019-01-31T22:08:28.618Z,78.11
2019-01-31T22:11:00.057Z,78.33
2019-01-31T22:13:31.400Z,79.17
2019-01-31T22:16:02.737Z,79.25
2019-01-31T22:18:34.406Z,79.57
2019-01-31T22:21:06.117Z,79.62
2019-01-31T22:23:37.713Z,79.72
2019-01-31T22:26:09.156Z,79.92
2019-01-31T22:28:40.858Z,80.10
2019-01-31T22:31:12.404Z,80.46
2019-01-31T22:33:44.009Z,80.33
2019-01-31T22:36:15.799Z,80.30
2019-01-31T22:38:47.397Z,80.51
2019-01-31T22:41:19.016Z,80.09
2019-01-31T22:43:50.332Z,80.54
2019-01-31T22:46:21.965Z,80.12
2019-01-31T22:48:53.667Z,79.67
2019-01-31T22:51:25.304Z,79.83
2019-01-31T22:53:57.024Z,79.92
2019-01-31T22:56:28.600Z,79.98
2019-01-31T22:59:02.244Z,79.32
2019-01-31T23:01:50.493Z,78.89
2019-01-31T23:04:22.016Z,78.18
2019-01-31T23:06:53.894Z,78.10
2019-01-31T23:09:25.560Z,78.13
2019-01-31T23:11:57.333Z,78.73
2019-01-31T23:14:28.947Z,79.03
2019-01-31T23:17:00.586Z,78.54
2019-01-31T23:19:32.034Z,78.63
2019-01-31T23:22:03.798Z,79.32
2019-01-31T23:24:35.443Z,78.88
2019-01-31T23:27:07.126Z,78.56
2019-01-31T23:29:38.750Z,78.41
2019-01-31T23:32:10.599Z,78.47
2019-01-31T23:34:42.318Z,79.20
2019-01-31T23:37:13.936Z,79.00
2019-01-31T23:39:45.716Z,78.89
2019-01-31T23:42:17.342Z,79.32
2019-01-31T23:44:49.001Z,79.75
2019-01-31T23:47:20.876Z,79.85
2019-01-31T23:49:52.631Z,79.91
2019-01-31T23:52:23.863Z,79.84
2019-01-31T23:54:55.324Z,79.87
2019-01-31T23:57:27.323Z,79.86
2019-01-31T23:59:58.817Z,79.75
